Westwood, Louisiana
Current Conditions -  °F | °C
As of 7:53 AM on Thursday 18 Dec 2014 (Local Time) from KTVR Reporting Station
Overcast Overcast  
Wind Chill: 46°   Ceiling: 3700
Heat Index: 48°   Visibility: 10mi
Dew Point: 40°   Wind: 5mph
Humidity: 74%   Direction: 30°NNE
Pressure: 30.21"   Gusts: NA
Location:  32.1015°N, 91.2929°W
Report Text: KTVR 181353Z AUTO 03004KT 10SM OVC037 09/04 A3021 RMK AO2 SLP236 T00890044
Loading
Personal Weather Stations






























Interactive Weather Map New forecast layout! Learn more

10-Day Weather Forecast

Advertisements
Track Severe Weather on mobile